Time;durP1;ratioP1;P1;durP2;ratioP2;P2;SDS_P1;SDS_P2;PMS_P1;PMS_P2;Temp;Humidity;BMP_temperature;BMP_pressure;BME280_temperature;BME280_humidity;BME280_pressure;Samples;Min_cycle;Max_cycle;Signal;HPM_P1;HPM_P2
2021/12/06 04:23:23;;;;;;;;;;;;;;;2.28;100.00;99202.06;4982501;28;20005;-83
2021/12/06 04:25:48;;;;;;;;;;;;;;;2.22;100.00;99204.78;4982647;28;20009;-86
2021/12/06 04:28:15;;;;;;;;;;;;;;;2.42;100.00;99206.16;4983595;28;19917;-84
2021/12/06 04:30:41;;;;;;;;;;;;;;;2.36;100.00;99202.78;4982534;28;20329;-84
2021/12/06 04:33:06;;;;;;;;;;;;;;;2.45;100.00;99206.09;4981198;28;19926;-84
2021/12/06 04:35:34;;;;;;;;;;;;;;;2.33;100.00;99217.63;4982706;28;20344;-85
2021/12/06 04:37:59;;;;;;;;;;;;;;;2.38;100.00;99230.63;4984993;28;19922;-84
2021/12/06 04:40:27;;;;;;;;;;;;;;;2.31;100.00;99229.88;4969218;28;20365;-83
2021/12/06 04:42:52;;;;;;;;;;;;;;;2.28;100.00;99228.19;4968888;28;20392;-83
2021/12/06 04:45:17;;;;;;;;;;;;;;;2.42;100.00;99232.31;4985913;28;19957;-87
2021/12/06 04:47:43;;;;;;;;;;;;;;;2.40;98.84;99231.47;4968752;28;19918;-82
2021/12/06 04:50:09;;;;;;;;;;;;;;;2.44;97.79;99235.75;4984842;28;19924;-83
2021/12/06 04:52:35;;;;;;;;;;;;;;;2.35;96.11;99237.66;4985761;28;20056;-82
2021/12/06 04:55:03;;;;;;;;;;;;;;;2.40;94.96;99241.94;4986058;28;19928;-85
2021/12/06 04:57:28;;;;;;;;;;;;;;;2.38;93.54;99249.81;4986030;28;19925;-84
2021/12/06 05:00:02;;;;;;;;;;;;;;;2.31;92.21;99240.34;4986602;28;19925;-85
2021/12/06 05:02:30;;;;;;;;;;;;;;;2.36;91.18;99234.16;4985695;28;19922;-86
2021/12/06 05:04:58;;;;;;;;;;;;;;;2.70;94.81;99246.59;4984701;28;19925;-86
2021/12/06 05:07:26;;;;;;;;;;;;;;;2.76;96.94;99249.97;4985765;28;19926;-87
2021/12/06 05:09:51;;;;;;;;;;;;;;;2.62;97.69;99253.72;4985737;28;20405;-88
2021/12/06 05:12:18;;;;;;;;;;;;;;;2.66;97.56;99259.75;4986036;28;19999;-87
2021/12/06 05:14:44;;;;;;;;;;;;;;;2.81;99.73;99269.94;4985724;28;19919;-87
2021/12/06 05:17:09;;;;;;;;;;;;;;;3.06;100.00;99272.94;4985421;28;20013;-87
2021/12/06 05:19:35;;;;;;;;;;;;;;;3.27;100.00;99276.84;4984258;28;19918;-88
2021/12/06 05:22:00;;;;;;;;;;;;;;;3.40;100.00;99279.22;4968195;28;19926;-88
2021/12/06 05:24:25;;;;;;;;;;;;;;;3.34;100.00;99290.66;4983939;28;19928;-88
2021/12/06 05:26:51;;;;;;;;;;;;;;;3.24;100.00;99291.78;4985738;28;19918;-87
2021/12/06 05:29:18;;;;;;;;;;;;;;;3.13;100.00;99297.22;4985010;28;19961;-87
2021/12/06 05:31:43;;;;;;;;;;;;;;;3.02;100.00;99294.81;4985194;28;19926;-88
2021/12/06 05:34:15;;;;;;;;;;;;;;;2.94;100.00;99294.09;4984450;28;19925;-87
2021/12/06 05:36:40;;;;;;;;;;;;;;;2.88;100.00;99302.91;4985139;28;19922;-87
2021/12/06 05:39:06;;;;;;;;;;;;;;;2.87;100.00;99313.41;4967838;28;19918;-87
2021/12/06 05:41:32;;;;;;;;;;;;;;;2.86;100.00;99309.09;4984787;28;19922;-87
2021/12/06 05:43:57;;;;;;;;;;;;;;;2.75;100.00;99319.75;4985282;28;19945;-86
2021/12/06 09:03:28;;;;;;;;;;;;;;;2.24;81.50;99514.09;4920840;28;19938;-84
2021/12/06 09:05:54;;;;;;;;;;;;;;;2.24;81.42;99511.50;4948192;29;20386;-84
2021/12/06 09:08:20;;;;;;;;;;;;;;;2.26;81.51;99508.84;4947255;29;20000;-84
2021/12/06 09:10:50;;;;;;;;;;;;;;;2.30;81.50;99506.19;4931499;29;19930;-85
2021/12/06 09:13:15;;;;;;;;;;;;;;;2.30;81.42;99500.94;4929617;29;19915;-85
2021/12/06 09:15:41;;;;;;;;;;;;;;;2.35;81.41;99506.97;4928105;29;20306;-85
2021/12/06 09:18:06;;;;;;;;;;;;;;;2.34;81.17;99502.63;4952829;29;19922;-85
2021/12/06 09:20:34;;;;;;;;;;;;;;;2.35;81.26;99509.59;4928001;29;19929;-85
2021/12/06 09:22:59;;;;;;;;;;;;;;;2.40;81.20;99511.28;4947841;28;20437;-84
2021/12/06 09:25:25;;;;;;;;;;;;;;;2.41;81.25;99519.13;4946244;29;20050;-85
2021/12/06 09:27:50;;;;;;;;;;;;;;;2.41;81.20;99518.22;4946565;29;20043;-85
2021/12/06 09:30:18;;;;;;;;;;;;;;;2.41;81.14;99523.47;4951128;29;20479;-85
2021/12/06 09:32:43;;;;;;;;;;;;;;;2.42;81.12;99528.66;4954278;29;20393;-85
2021/12/06 09:35:12;;;;;;;;;;;;;;;2.43;80.99;99533.03;4929202;29;19965;-85
2021/12/06 09:37:39;;;;;;;;;;;;;;;2.43;80.90;99532.16;4953157;29;19924;-85
2021/12/06 09:40:05;;;;;;;;;;;;;;;2.46;80.86;99537.38;4946888;29;20433;-85
2021/12/06 09:42:33;;;;;;;;;;;;;;;2.49;80.84;99534.66;4946291;29;19922;-85
2021/12/06 09:44:59;;;;;;;;;;;;;;;2.52;81.03;99532.91;4936707;29;20010;-85
2021/12/06 09:47:27;;;;;;;;;;;;;;;2.52;81.06;99529.41;4946086;29;19955;-85
2021/12/06 09:49:55;;;;;;;;;;;;;;;2.54;80.95;99530.25;4937103;29;19958;-85
2021/12/06 09:52:21;;;;;;;;;;;;;;;2.56;80.95;99528.47;4929399;29;19933;-85
2021/12/06 09:54:46;;;;;;;;;;;;;;;2.60;81.08;99530.19;4928833;29;19919;-85
2021/12/06 09:57:12;;;;;;;;;;;;;;;2.60;80.97;99538.03;4936642;29;20001;-85
2021/12/06 09:59:38;;;;;;;;;;;;;;;2.59;80.93;99533.69;4937339;29;20294;-85
2021/12/06 10:02:06;;;;;;;;;;;;;;;2.62;81.07;99531.00;4944453;29;19922;-84
2021/12/06 10:04:33;;;;;;;;;;;;;;;2.63;81.00;99532.75;4945864;29;20283;-84
2021/12/06 10:06:59;;;;;;;;;;;;;;;2.66;81.06;99524.84;4936661;29;19918;-85
2021/12/06 10:09:25;;;;;;;;;;;;;;;2.63;81.04;99524.91;4936675;29;19945;-85
2021/12/06 10:11:52;;;;;;;;;;;;;;;2.68;81.07;99530.03;4946518;29;19934;-85
2021/12/06 10:14:18;;;;;;;;;;;;;;;2.71;81.04;99530.00;4946594;29;20295;-85
2021/12/06 10:16:44;;;;;;;;;;;;;;;2.75;80.95;99533.47;4934939;29;19942;-85
2021/12/06 10:19:09;;;;;;;;;;;;;;;2.73;80.91;99542.19;4928622;29;19919;-85
2021/12/06 10:21:36;;;;;;;;;;;;;;;2.79;80.84;99542.97;4945495;29;19953;-85
2021/12/06 10:24:01;;;;;;;;;;;;;;;2.76;80.72;99540.41;4929081;29;20017;-85
2021/12/06 10:26:28;;;;;;;;;;;;;;;2.76;80.56;99541.28;4945551;29;20006;-85
2021/12/06 10:28:58;;;;;;;;;;;;;;;2.82;80.68;99551.63;4928767;29;20005;-85
2021/12/06 10:31:24;;;;;;;;;;;;;;;2.81;80.32;99555.16;4944225;29;20042;-84
2021/12/06 10:33:50;;;;;;;;;;;;;;;2.82;80.51;99548.16;4936430;29;20017;-85
2021/12/06 10:36:17;;;;;;;;;;;;;;;2.86;80.36;99552.47;4944060;29;20021;-85
2021/12/06 10:38:44;;;;;;;;;;;;;;;2.89;80.21;99542.81;4935547;29;19922;-85
2021/12/06 10:41:17;;;;;;;;;;;;;;;2.91;80.31;99541.03;4945878;29;19958;-85
2021/12/06 10:43:52;;;;;;;;;;;;;;;2.91;80.37;99540.19;4945687;29;19970;-85
2021/12/06 10:46:18;;;;;;;;;;;;;;;2.92;80.41;99536.69;4926934;29;19914;-84
2021/12/06 10:48:43;;;;;;;;;;;;;;;2.98;80.31;99536.56;4945146;29;19922;-85
2021/12/06 10:51:10;;;;;;;;;;;;;;;2.98;80.45;99526.09;4928186;29;19914;-84
2021/12/06 10:53:40;;;;;;;;;;;;;;;3.00;80.37;99533.91;4928330;29;20009;-85
2021/12/06 10:56:14;;;;;;;;;;;;;;;3.02;80.49;99527.78;4928028;29;20374;-84
2021/12/06 10:58:40;;;;;;;;;;;;;;;3.04;80.41;99519.91;4928387;29;19926;-85
2021/12/06 11:01:08;;;;;;;;;;;;;;;3.00;80.19;99511.25;4943957;29;20333;-85
2021/12/06 11:03:45;;;;;;;;;;;;;;;3.00;80.20;99511.25;4951354;29;20022;-85
2021/12/06 11:06:13;;;;;;;;;;;;;;;3.04;80.29;99515.53;4945069;29;19922;-85
2021/12/06 11:08:39;;;;;;;;;;;;;;;3.07;80.21;99519.84;4927706;29;19966;-85
2021/12/06 11:11:24;;;;;;;;;;;;;;;3.09;80.04;99515.44;4935301;29;19960;-85
2021/12/06 11:13:51;;;;;;;;;;;;;;;3.11;80.20;99515.44;4927421;29;19915;-85
2021/12/06 11:16:21;;;;;;;;;;;;;;;3.12;80.08;99506.69;4926362;29;19984;-85
2021/12/06 11:18:46;;;;;;;;;;;;;;;3.15;80.23;99511.88;4935265;29;19922;-85
2021/12/06 11:21:14;;;;;;;;;;;;;;;3.14;80.19;99513.63;4935155;29;20370;-85
2021/12/06 11:24:00;;;;;;;;;;;;;;;3.17;80.28;99517.94;4935080;29;20475;-85
2021/12/06 11:26:26;;;;;;;;;;;;;;;3.15;80.34;99506.66;4944091;29;19926;-85
2021/12/06 11:28:51;;;;;;;;;;;;;;;3.19;80.54;99503.06;4925100;29;19923;-85
2021/12/06 11:31:17;;;;;;;;;;;;;;;3.22;80.48;99492.53;4925243;29;19934;-85
2021/12/06 11:33:42;;;;;;;;;;;;;;;3.21;80.50;99485.59;4934643;29;19930;-85
2021/12/06 11:36:25;;;;;;;;;;;;;;;3.27;80.24;99486.34;4943674;29;19989;-84
2021/12/06 11:38:56;;;;;;;;;;;;;;;3.27;80.32;99488.06;4934656;29;19922;-85
2021/12/06 11:41:22;;;;;;;;;;;;;;;3.29;80.39;99488.94;4925419;29;20290;-84
2021/12/06 11:43:47;;;;;;;;;;;;;;;3.30;80.53;99488.03;4944022;29;19927;-85
2021/12/06 11:46:12;;;;;;;;;;;;;;;3.34;80.67;99486.25;4940295;29;19997;-84
2021/12/06 11:48:39;;;;;;;;;;;;;;;3.37;80.76;99480.94;4942390;29;19970;-84
2021/12/06 11:51:10;;;;;;;;;;;;;;;3.39;80.90;99480.00;4942651;29;19959;-84
2021/12/06 11:53:44;;;;;;;;;;;;;;;3.39;81.00;99477.38;4943374;29;19919;-84
2021/12/06 11:56:15;;;;;;;;;;;;;;;3.41;80.94;99467.75;4933167;29;19969;-83
2021/12/06 11:58:42;;;;;;;;;;;;;;;3.45;80.79;99464.19;4934496;29;19966;-84
2021/12/06 12:01:10;;;;;;;;;;;;;;;3.47;80.95;99471.16;4924692;29;19923;-84
2021/12/06 12:03:36;;;;;;;;;;;;;;;3.50;81.04;99460.63;4926878;29;19978;-83
2021/12/06 12:06:02;;;;;;;;;;;;;;;3.51;80.93;99459.72;4926428;29;19922;-84
2021/12/06 12:08:32;;;;;;;;;;;;;;;3.51;80.81;99452.72;4943281;29;19919;-84
2021/12/06 12:10:57;;;;;;;;;;;;;;;3.52;80.75;99443.97;4933169;29;19977;-84
2021/12/06 12:13:24;;;;;;;;;;;;;;;3.56;81.00;99448.25;4944014;29;20337;-84
2021/12/06 12:15:51;;;;;;;;;;;;;;;3.55;81.02;99441.28;4926755;29;19934;-84
2021/12/06 12:18:16;;;;;;;;;;;;;;;3.58;81.00;99448.22;4927091;29;19929;-84
2021/12/06 12:20:41;;;;;;;;;;;;;;;3.57;81.06;99449.13;4924358;29;19935;-84
2021/12/06 12:23:09;;;;;;;;;;;;;;;3.59;81.16;99448.19;4943047;29;20014;-85
2021/12/06 12:25:38;;;;;;;;;;;;;;;3.59;80.96;99440.34;4934149;29;19918;-85
2021/12/06 12:28:21;;;;;;;;;;;;;;;3.61;81.05;99448.19;4943681;29;19993;-85
2021/12/06 12:30:48;;;;;;;;;;;;;;;3.62;81.04;99448.16;4943489;29;19922;-85
2021/12/06 12:33:13;;;;;;;;;;;;;;;3.67;81.21;99452.41;4942893;29;19922;-85
2021/12/06 12:35:41;;;;;;;;;;;;;;;3.67;81.03;99453.31;4934823;29;19930;-84
2021/12/06 12:38:08;;;;;;;;;;;;;;;3.68;81.27;99455.00;4943726;29;20001;-85
2021/12/06 12:40:39;;;;;;;;;;;;;;;3.70;81.20;99455.84;4943370;29;20013;-84
2021/12/06 12:43:06;;;;;;;;;;;;;;;3.69;81.19;99456.75;4943625;29;20453;-85
2021/12/06 12:45:33;;;;;;;;;;;;;;;3.74;81.21;99454.88;4932808;29;20377;-84
2021/12/06 12:48:01;;;;;;;;;;;;;;;3.73;81.20;99452.28;4942729;29;19923;-85
2021/12/06 12:50:30;;;;;;;;;;;;;;;3.77;81.36;99439.09;4942952;29;19941;-85
2021/12/06 12:52:55;;;;;;;;;;;;;;;3.89;81.98;99445.84;4933797;29;19923;-85
2021/12/06 12:55:32;;;;;;;;;;;;;;;4.08;82.79;99442.81;4943196;29;19919;-85
2021/12/06 12:58:09;;;;;;;;;;;;;;;4.23;83.90;99441.63;4943865;29;19919;-85
2021/12/06 13:00:43;;;;;;;;;;;;;;;4.32;84.98;99430.91;4951856;29;19926;-84
2021/12/06 13:03:41;;;;;;;;;;;;;;;4.42;85.98;99427.22;4929808;29;20318;-86
2021/12/06 13:06:12;;;;;;;;;;;;;;;4.42;87.00;99427.22;4938819;29;19973;-84
2021/12/06 13:08:37;;;;;;;;;;;;;;;4.41;87.52;99428.09;4930325;29;19929;-85
2021/12/06 13:11:03;;;;;;;;;;;;;;;4.41;88.14;99425.47;4937089;29;19926;-85
2021/12/06 13:13:38;;;;;;;;;;;;;;;4.39;88.84;99427.28;4929995;29;19946;-86
2021/12/06 13:16:09;;;;;;;;;;;;;;;4.35;89.01;99417.75;4926951;29;19922;-84
2021/12/06 13:19:00;;;;;;;;;;;;;;;4.33;89.14;99419.53;4929326;29;19923;-85
2021/12/06 13:21:26;;;;;;;;;;;;;;;4.23;89.34;99416.28;4937413;29;19974;-85
2021/12/06 13:24:03;;;;;;;;;;;;;;;4.18;89.65;99416.38;4929711;29;20363;-86
2021/12/06 13:26:35;;;;;;;;;;;;;;;3.96;90.28;99404.66;4945464;29;19922;-85
2021/12/06 13:29:03;;;;;;;;;;;;;;;3.91;91.20;99396.88;4946433;29;19926;-85
2021/12/06 13:31:28;;;;;;;;;;;;;;;3.88;92.35;99402.19;4930352;28;19978;-86
2021/12/06 13:33:55;;;;;;;;;;;;;;;3.88;93.68;99399.56;4936585;29;19922;-85
2021/12/06 13:36:39;;;;;;;;;;;;;;;3.91;95.27;99391.63;4937421;29;20338;-85
2021/12/06 13:39:24;;;;;;;;;;;;;;;4.00;97.91;99382.69;4936297;29;20022;-86
2021/12/06 13:41:50;;;;;;;;;;;;;;;4.11;100.00;99375.44;4945952;29;20034;-85
2021/12/06 13:44:21;;;;;;;;;;;;;;;4.32;100.00;99375.84;4930738;29;19922;-85
2021/12/06 13:46:50;;;;;;;;;;;;;;;4.49;100.00;99370.19;4945257;29;19977;-86
2021/12/06 13:49:16;;;;;;;;;;;;;;;4.61;100.00;99369.00;4947806;28;19926;-86
2021/12/06 13:51:48;;;;;;;;;;;;;;;4.69;100.00;99360.06;4938589;29;20108;-85
2021/12/06 13:54:16;;;;;;;;;;;;;;;4.77;100.00;99352.00;4937453;29;20289;-85
2021/12/06 13:56:41;;;;;;;;;;;;;;;4.85;100.00;99352.66;4928704;29;19974;-84
2021/12/06 13:59:07;;;;;;;;;;;;;;;4.90;100.00;99350.75;4936359;29;19926;-85
2021/12/06 14:01:35;;;;;;;;;;;;;;;4.96;100.00;99343.63;4935008;29;19923;-85
2021/12/06 14:04:04;;;;;;;;;;;;;;;5.02;100.00;99349.56;4944921;29;19923;-85
2021/12/06 14:06:40;;;;;;;;;;;;;;;5.08;100.00;99343.28;4936672;29;19926;-85
2021/12/06 14:09:06;;;;;;;;;;;;;;;5.14;100.00;99347.50;4935490;29;20029;-86
2021/12/06 14:11:31;;;;;;;;;;;;;;;5.18;100.00;99339.50;4928132;29;20084;-85
2021/12/06 14:13:58;;;;;;;;;;;;;;;5.22;100.00;99330.63;4927129;29;20378;-86
2021/12/06 14:16:29;;;;;;;;;;;;;;;5.26;100.00;99329.66;4944490;29;19922;-86
2021/12/06 14:18:54;;;;;;;;;;;;;;;5.30;100.00;99329.53;4936609;29;19931;-86
2021/12/06 14:21:20;;;;;;;;;;;;;;;5.37;100.00;99334.56;4929788;29;20275;-85
2021/12/06 14:23:46;;;;;;;;;;;;;;;5.39;100.00;99339.78;4934726;29;20335;-85
2021/12/06 14:26:12;;;;;;;;;;;;;;;5.24;100.00;99338.47;4945597;29;19970;-85
2021/12/06 14:28:43;;;;;;;;;;;;;;;4.30;100.00;99333.91;4936026;29;19950;-85
2021/12/06 14:31:08;;;;;;;;;;;;;;;3.83;100.00;99343.75;4926814;29;19951;-85
2021/12/06 14:33:35;;;;;;;;;;;;;;;3.71;100.00;99342.25;4944886;29;19923;-85
2021/12/06 14:36:01;;;;;;;;;;;;;;;3.56;100.00;99337.38;4928251;29;19958;-83
2021/12/06 14:38:28;;;;;;;;;;;;;;;3.44;100.00;99331.47;4935501;29;19929;-85
2021/12/06 14:40:54;;;;;;;;;;;;;;;3.34;100.00;99340.44;4928613;29;19922;-85
2021/12/06 14:43:21;;;;;;;;;;;;;;;3.21;100.00;99333.72;4928077;29;19919;-85
2021/12/06 14:45:47;;;;;;;;;;;;;;;3.20;99.05;99334.59;4926742;29;19954;-86
2021/12/06 14:48:16;;;;;;;;;;;;;;;3.21;97.95;99331.97;4934255;29;19966;-85
2021/12/06 14:51:02;;;;;;;;;;;;;;;3.11;96.57;99326.94;4927387;29;19973;-86
2021/12/06 14:56:23;;;;;;;;;;;;;;;2.95;94.27;99319.38;4945476;29;19950;-86
2021/12/06 14:58:49;;;;;;;;;;;;;;;3.06;93.77;99312.19;4928762;29;20377;-84
2021/12/06 15:01:20;;;;;;;;;;;;;;;2.95;93.21;99315.91;4942853;29;19923;-84
2021/12/06 15:03:51;;;;;;;;;;;;;;;2.89;92.68;99306.44;4944271;29;19933;-86
2021/12/06 15:06:18;;;;;;;;;;;;;;;2.87;91.97;99302.94;4935764;29;19918;-84
2021/12/06 15:08:45;;;;;;;;;;;;;;;2.83;91.75;99293.44;4944223;29;19923;-84
2021/12/06 15:11:19;;;;;;;;;;;;;;;2.82;91.47;99283.88;4927172;29;20386;-85
2021/12/06 15:13:45;;;;;;;;;;;;;;;2.73;90.77;99279.69;4942931;29;20342;-85
2021/12/06 15:16:12;;;;;;;;;;;;;;;2.64;90.32;99269.38;4943533;29;19957;-85
2021/12/06 15:18:39;;;;;;;;;;;;;;;2.53;90.14;99274.81;4944772;29;19927;-81
2021/12/06 15:21:05;;;;;;;;;;;;;;;2.58;90.21;99272.13;4944390;29;19977;-85
2021/12/06 15:23:34;;;;;;;;;;;;;;;2.53;89.58;99277.44;4926757;29;20017;-85
2021/12/06 15:26:01;;;;;;;;;;;;;;;2.66;89.47;99278.91;4927589;29;19919;-86
2021/12/06 15:28:28;;;;;;;;;;;;;;;2.49;88.85;99278.38;4944997;29;19922;-85
2021/12/06 15:30:54;;;;;;;;;;;;;;;2.53;88.62;99272.19;4941368;29;19922;-85
2021/12/06 15:33:22;;;;;;;;;;;;;;;2.49;88.55;99268.78;4945411;29;20259;-87
2021/12/06 15:35:52;;;;;;;;;;;;;;;2.40;88.06;99265.47;4943482;29;19945;-85
2021/12/06 15:38:20;;;;;;;;;;;;;;;2.43;87.69;99265.44;4928143;29;19919;-84
2021/12/06 15:40:47;;;;;;;;;;;;;;;2.31;87.24;99271.72;4927538;29;20009;-86
2021/12/06 15:43:13;;;;;;;;;;;;;;;2.28;87.08;99271.75;4944344;29;19977;-85
2021/12/06 15:45:38;;;;;;;;;;;;;;;2.37;86.92;99266.38;4943395;29;19923;-85
2021/12/06 15:48:08;;;;;;;;;;;;;;;2.22;86.72;99254.44;4943582;29;19923;-85
2021/12/06 15:50:34;;;;;;;;;;;;;;;2.25;86.60;99245.66;4944392;29;19930;-84
2021/12/06 15:52:59;;;;;;;;;;;;;;;2.28;86.45;99243.88;4934611;29;19927;-82
2021/12/06 15:55:27;;;;;;;;;;;;;;;2.12;85.98;99245.91;4934505;29;19923;-87
2021/12/06 15:57:56;;;;;;;;;;;;;;;2.15;86.06;99240.63;4934645;29;19919;-87
2021/12/06 16:00:26;;;;;;;;;;;;;;;2.14;85.57;99243.28;4933132;29;19956;-83
2021/12/06 16:02:52;;;;;;;;;;;;;;;2.13;85.33;99236.31;4945026;29;19930;-85
2021/12/06 16:05:24;;;;;;;;;;;;;;;2.15;85.33;99237.13;4927465;29;19922;-85
2021/12/06 16:07:52;;;;;;;;;;;;;;;2.08;85.18;99238.13;4926968;29;19923;-85
2021/12/06 16:10:17;;;;;;;;;;;;;;;2.03;84.83;99242.56;4927660;29;19930;-84
2021/12/06 16:12:55;;;;;;;;;;;;;;;2.07;85.26;99231.19;4943933;29;19919;-83
2021/12/06 16:15:24;;;;;;;;;;;;;;;1.94;84.81;99226.16;4932917;29;20301;-85
2021/12/06 16:17:54;;;;;;;;;;;;;;;2.05;84.63;99232.97;4926842;29;19945;-85
2021/12/06 16:20:21;;;;;;;;;;;;;;;2.02;84.47;99230.41;4942988;29;19926;-84
2021/12/06 16:22:52;;;;;;;;;;;;;;;1.95;84.52;99242.72;4950382;29;19918;-86
2021/12/06 16:25:19;;;;;;;;;;;;;;;1.97;84.58;99236.56;4943667;29;20264;-85
2021/12/06 16:27:57;;;;;;;;;;;;;;;1.93;84.65;99242.75;4943740;29;19919;-85
2021/12/06 16:30:23;;;;;;;;;;;;;;;1.92;84.60;99238.38;4933624;29;19930;-85
2021/12/06 16:32:48;;;;;;;;;;;;;;;1.87;84.67;99229.78;4927083;29;20030;-85
2021/12/06 16:35:15;;;;;;;;;;;;;;;1.99;84.63;99229.56;4938193;29;19978;-84
2021/12/06 16:37:40;;;;;;;;;;;;;;;1.89;84.14;99222.75;4946634;28;20370;-85
2021/12/06 16:40:06;;;;;;;;;;;;;;;1.83;84.08;99227.22;4947842;28;20009;-85
2021/12/06 16:42:37;;;;;;;;;;;;;;;1.90;84.12;99223.59;4947725;29;20342;-86
2021/12/06 16:45:15;;;;;;;;;;;;;;;1.89;83.75;99232.34;4930012;29;19950;-87
2021/12/06 16:47:46;;;;;;;;;;;;;;;1.89;83.80;99211.44;4930696;29;20017;-86
2021/12/06 16:50:12;;;;;;;;;;;;;;;1.76;83.62;99216.03;4930361;29;19928;-85
2021/12/06 16:52:38;;;;;;;;;;;;;;;1.77;83.91;99217.72;4930057;29;19927;-85
2021/12/06 16:55:03;;;;;;;;;;;;;;;1.69;83.80;99209.16;4937904;29;20088;-86
2021/12/06 16:57:34;;;;;;;;;;;;;;;1.78;83.89;99212.47;4938573;29;19925;-87
2021/12/06 17:00:00;;;;;;;;;;;;;;;1.81;83.49;99204.59;4945850;29;19922;-86
2021/12/06 17:02:26;;;;;;;;;;;;;;;1.73;83.67;99196.03;4944862;29;20338;-85
2021/12/06 17:04:56;;;;;;;;;;;;;;;1.68;83.57;99202.22;4930214;29;19969;-87
2021/12/06 17:07:41;;;;;;;;;;;;;;;1.65;83.52;99202.28;4945771;29;19966;-87
2021/12/06 17:10:18;;;;;;;;;;;;;;;1.63;82.93;99195.31;4930339;29;20334;-86
2021/12/06 17:12:48;;;;;;;;;;;;;;;1.69;83.06;99190.88;4953847;29;19926;-86
2021/12/06 17:15:25;;;;;;;;;;;;;;;1.66;83.30;99178.75;4936359;29;19923;-87
2021/12/06 17:17:55;;;;;;;;;;;;;;;1.69;82.95;99177.81;4937384;29;19922;-85
2021/12/06 17:20:26;;;;;;;;;;;;;;;1.70;82.36;99187.38;4946844;29;19929;-84
2021/12/06 17:22:52;;;;;;;;;;;;;;;1.68;82.66;99189.16;4946671;29;20013;-85
2021/12/06 17:25:18;;;;;;;;;;;;;;;1.57;82.29;99186.72;4946940;29;20016;-85
2021/12/06 17:27:46;;;;;;;;;;;;;;;1.61;82.13;99204.94;4946805;29;19954;-86
2021/12/06 17:30:15;;;;;;;;;;;;;;;1.62;82.05;99201.41;4945255;29;20284;-85
2021/12/06 17:33:02;;;;;;;;;;;;;;;1.62;82.17;99201.41;4930324;29;19922;-86
2021/12/06 17:35:28;;;;;;;;;;;;;;;1.60;81.93;99204.94;4946809;29;19926;-85
2021/12/06 17:37:55;;;;;;;;;;;;;;;1.60;81.76;99204.94;4946475;29;19923;-85
2021/12/06 17:40:20;;;;;;;;;;;;;;;1.60;82.34;99211.03;4947096;29;19918;-86
2021/12/06 17:42:46;;;;;;;;;;;;;;;1.55;82.23;99212.84;4946598;29;19945;-87
2021/12/06 17:45:14;;;;;;;;;;;;;;;1.57;82.02;99210.22;4944756;29;19926;-87
2021/12/06 17:47:39;;;;;;;;;;;;;;;1.62;81.83;99200.56;4946853;29;19925;-85
2021/12/06 17:50:05;;;;;;;;;;;;;;;1.60;81.86;99200.59;4946675;29;20021;-87
2021/12/06 17:52:30;;;;;;;;;;;;;;;1.55;81.45;99197.19;4946612;29;19927;-85
2021/12/06 17:54:56;;;;;;;;;;;;;;;1.56;81.76;99192.81;4946188;29;20371;-86
2021/12/06 17:57:41;;;;;;;;;;;;;;;1.50;81.49;99185.97;4946477;29;19977;-85
2021/12/06 18:00:07;;;;;;;;;;;;;;;1.63;81.11;99195.31;4945695;29;20271;-87
2021/12/06 18:02:32;;;;;;;;;;;;;;;1.57;81.11;99189.34;4945933;29;19947;-85
2021/12/06 18:04:58;;;;;;;;;;;;;;;1.55;81.14;99197.19;4945894;29;20406;-87
2021/12/06 18:07:24;;;;;;;;;;;;;;;1.57;80.86;99205.84;4946334;29;19990;-86
2021/12/06 18:09:49;;;;;;;;;;;;;;;1.62;80.95;99192.72;4944906;29;19946;-85
2021/12/06 18:12:14;;;;;;;;;;;;;;;1.59;80.42;99192.78;4946430;29;20358;-85
2021/12/06 18:14:41;;;;;;;;;;;;;;;1.56;80.38;99184.97;4946192;29;19923;-84
2021/12/06 18:17:10;;;;;;;;;;;;;;;1.65;80.38;99181.38;4944541;29;19929;-87
2021/12/06 18:19:36;;;;;;;;;;;;;;;1.62;80.50;99177.91;4946128;29;19954;-85
2021/12/06 18:22:02;;;;;;;;;;;;;;;1.63;80.16;99174.41;4946045;29;19919;-86
2021/12/06 18:24:27;;;;;;;;;;;;;;;1.65;80.59;99174.41;4945917;29;19930;-85
2021/12/06 18:26:53;;;;;;;;;;;;;;;1.59;80.41;99170.13;4945940;29;19926;-85
2021/12/06 18:29:24;;;;;;;;;;;;;;;1.68;80.25;99165.66;4935987;29;19919;-87
2021/12/06 18:31:50;;;;;;;;;;;;;;;1.70;80.00;99156.88;4944504;29;20048;-85
2021/12/06 18:34:16;;;;;;;;;;;;;;;1.64;80.23;99157.00;4945418;29;20011;-84
2021/12/06 18:36:44;;;;;;;;;;;;;;;1.62;80.28;99153.53;4936128;29;20345;-86
2021/12/06 18:39:13;;;;;;;;;;;;;;;1.63;80.09;99142.22;4928486;29;19922;-85
2021/12/06 18:41:38;;;;;;;;;;;;;;;1.63;79.87;99137.84;4945313;29;19923;-86
2021/12/06 18:46:31;;;;;;;;;;;;;;;1.61;79.71;99134.41;4944567;29;19918;-85
2021/12/06 18:48:56;;;;;;;;;;;;;;;1.65;79.47;99132.59;4936334;29;20278;-85
2021/12/06 18:51:23;;;;;;;;;;;;;;;1.59;79.11;99123.09;4945378;29;19929;-85
2021/12/06 18:53:50;;;;;;;;;;;;;;;1.61;79.23;99121.34;4945117;29;19915;-85
2021/12/06 18:56:16;;;;;;;;;;;;;;;1.60;79.37;99117.00;4945499;28;20027;-85
2021/12/06 18:58:42;;;;;;;;;;;;;;;1.60;79.30;99117.00;4944977;29;19915;-85
2021/12/06 19:01:09;;;;;;;;;;;;;;;1.59;79.13;99109.19;4944070;29;19923;-86
2021/12/06 19:03:35;;;;;;;;;;;;;;;1.57;78.84;99101.38;4924600;29;20331;-86
2021/12/06 19:06:00;;;;;;;;;;;;;;;1.59;78.96;99099.59;4926125;29;19926;-87
2021/12/06 19:08:27;;;;;;;;;;;;;;;1.58;78.62;99099.63;4925990;29;19927;-85
2021/12/06 19:10:54;;;;;;;;;;;;;;;1.57;78.60;99095.31;4926845;29;19926;-85
2021/12/06 19:13:19;;;;;;;;;;;;;;;1.56;78.43;99094.44;4925458;29;19925;-85
2021/12/06 19:15:44;;;;;;;;;;;;;;;1.56;78.22;99093.59;4924545;29;20371;-85
2021/12/06 19:18:11;;;;;;;;;;;;;;;1.56;78.09;99080.53;4925658;29;19931;-85
2021/12/06 19:20:42;;;;;;;;;;;;;;;1.50;78.01;99083.25;4925920;29;19911;-86
2021/12/06 19:23:08;;;;;;;;;;;;;;;1.51;78.03;99077.13;4925717;29;19919;-86
2021/12/06 19:25:35;;;;;;;;;;;;;;;1.54;77.83;99079.69;4925871;29;19927;-87
2021/12/06 19:28:00;;;;;;;;;;;;;;;1.52;77.79;99082.34;4925434;29;20326;-86
2021/12/06 19:30:27;;;;;;;;;;;;;;;1.51;77.61;99075.38;4924337;29;19923;-86
2021/12/06 19:32:55;;;;;;;;;;;;;;;1.53;77.50;99077.97;4925585;29;19923;-85
2021/12/06 19:35:21;;;;;;;;;;;;;;;1.54;77.17;99061.41;4925989;29;19923;-87
2021/12/06 19:37:49;;;;;;;;;;;;;;;1.51;77.28;99062.31;4925619;29;19926;-85
2021/12/06 19:40:16;;;;;;;;;;;;;;;1.51;77.21;99064.94;4925699;29;19919;-86
2021/12/06 19:42:42;;;;;;;;;;;;;;;1.50;77.40;99052.78;4925458;29;20379;-86
2021/12/06 19:45:09;;;;;;;;;;;;;;;1.54;77.23;99054.44;4923443;29;19919;-85
2021/12/06 19:47:34;;;;;;;;;;;;;;;1.53;77.55;99038.81;4925285;29;19923;-86
2021/12/06 19:50:00;;;;;;;;;;;;;;;1.53;77.52;99037.06;4940270;29;19969;-86
2021/12/06 19:52:27;;;;;;;;;;;;;;;1.50;77.30;99031.91;4924170;29;19925;-85
2021/12/06 19:54:54;;;;;;;;;;;;;;;1.50;77.12;99026.69;4925127;29;19926;-85
2021/12/06 19:57:20;;;;;;;;;;;;;;;1.49;77.18;99017.13;4925589;29;19926;-86
2021/12/06 19:59:45;;;;;;;;;;;;;;;1.49;77.20;99009.28;4925463;29;19923;-86
2021/12/06 20:02:11;;;;;;;;;;;;;;;1.52;76.94;99006.63;4922484;29;19927;-85
2021/12/06 20:04:36;;;;;;;;;;;;;;;1.52;76.81;98996.16;4937298;29;20041;-85
2021/12/06 20:07:03;;;;;;;;;;;;;;;1.49;76.74;98991.00;4944521;28;19918;-85
2021/12/06 20:09:29;;;;;;;;;;;;;;;1.59;76.51;98984.69;4944320;29;20009;-87
2021/12/06 20:11:55;;;;;;;;;;;;;;;1.50;76.38;98982.28;4944588;29;20045;-85
2021/12/06 20:14:20;;;;;;;;;;;;;;;1.56;76.45;98969.09;4944060;29;19923;-87
2021/12/06 20:16:46;;;;;;;;;;;;;;;1.63;76.12;98960.25;4942762;29;20402;-85
2021/12/06 20:19:13;;;;;;;;;;;;;;;1.66;76.19;98955.84;4942945;29;20335;-86
2021/12/06 20:21:39;;;;;;;;;;;;;;;1.76;76.06;98946.97;4944257;29;19927;-85
2021/12/06 20:24:04;;;;;;;;;;;;;;;1.67;75.98;98940.16;4943883;29;19974;-87
2021/12/06 20:26:29;;;;;;;;;;;;;;;1.65;75.76;98935.88;4942664;29;20289;-85
2021/12/06 20:28:56;;;;;;;;;;;;;;;1.73;75.75;98919.16;4944380;29;20385;-86
2021/12/06 20:31:22;;;;;;;;;;;;;;;1.66;75.86;98906.25;4942616;29;20018;-86
2021/12/06 20:33:47;;;;;;;;;;;;;;;1.72;75.94;98906.97;4934102;29;20013;-86
2021/12/06 20:36:13;;;;;;;;;;;;;;;1.72;75.68;98900.88;4943547;29;20380;-85
2021/12/06 20:38:38;;;;;;;;;;;;;;;1.81;75.69;98911.16;4943789;29;19919;-86
2021/12/06 20:41:04;;;;;;;;;;;;;;;1.74;75.79;98925.22;4942807;29;20381;-86
2021/12/06 20:43:30;;;;;;;;;;;;;;;1.81;75.45;98927.69;4944064;29;20309;-86